createdAt,value
2023-06-02T04:02:32.169Z,11.79
2023-06-02T04:04:58.817Z,11.84
2023-06-02T04:07:25.526Z,11.84
2023-06-02T04:09:52.250Z,12.00
2023-06-02T04:12:18.820Z,11.89
2023-06-02T04:14:45.366Z,11.82
2023-06-02T04:17:12.011Z,11.83
2023-06-02T04:19:38.615Z,11.77
2023-06-02T04:22:06.667Z,11.72
2023-06-02T04:24:33.391Z,11.70
2023-06-02T04:27:00.433Z,11.98
2023-06-02T04:29:29.679Z,11.95
2023-06-02T04:31:57.936Z,12.03
2023-06-02T04:34:24.954Z,12.08
2023-06-02T04:36:51.573Z,12.14
2023-06-02T04:39:18.754Z,12.03
2023-06-02T04:41:45.357Z,12.18
2023-06-02T04:44:12.626Z,12.13
2023-06-02T04:46:39.294Z,12.07
2023-06-02T04:49:10.054Z,12.01
2023-06-02T04:51:38.535Z,12.21
2023-06-02T04:54:05.821Z,12.11
2023-06-02T04:56:33.141Z,12.07
2023-06-02T04:58:59.776Z,12.28
2023-06-02T05:01:26.428Z,12.34
2023-06-02T05:03:54.539Z,12.00
2023-06-02T05:06:21.459Z,12.00
2023-06-02T05:08:48.079Z,11.98
2023-06-02T05:11:14.628Z,12.24
2023-06-02T05:13:41.204Z,12.11
2023-06-02T05:16:07.988Z,12.30
2023-06-02T05:18:34.921Z,12.20
2023-06-02T05:21:01.520Z,12.14
2023-06-02T05:23:28.107Z,12.37
2023-06-02T05:25:54.700Z,12.40
2023-06-02T05:28:21.255Z,12.52
2023-06-02T05:30:47.847Z,12.56
2023-06-02T05:33:14.526Z,12.46
2023-06-02T05:35:41.168Z,12.58
2023-06-02T05:38:07.755Z,12.48
2023-06-02T05:40:34.367Z,12.55
2023-06-02T05:43:00.944Z,12.49
2023-06-02T05:45:27.568Z,12.62
2023-06-02T05:47:54.214Z,12.75
2023-06-02T05:50:20.833Z,12.61
2023-06-02T05:52:47.410Z,12.55
2023-06-02T05:55:14.063Z,12.52
2023-06-02T05:57:40.688Z,12.66
2023-06-02T06:00:08.384Z,12.69
2023-06-02T06:02:35.124Z,12.76
2023-06-02T06:05:01.846Z,12.76
2023-06-02T06:07:28.465Z,12.59
2023-06-02T06:09:55.033Z,12.86
2023-06-02T06:12:21.618Z,12.70
2023-06-02T06:14:48.243Z,12.78
2023-06-02T06:17:14.797Z,12.80
2023-06-02T06:19:41.476Z,12.93
2023-06-02T06:22:08.130Z,12.86
2023-06-02T06:24:34.991Z,12.85
2023-06-02T06:27:01.682Z,12.79
2023-06-02T06:29:28.252Z,13.02
2023-06-02T06:31:54.848Z,12.83
2023-06-02T06:34:21.462Z,13.04
2023-06-02T06:36:48.854Z,13.00
2023-06-02T06:39:15.488Z,13.06
2023-06-02T06:41:43.538Z,13.19
2023-06-02T06:44:10.256Z,13.23
2023-06-02T06:46:37.091Z,13.13
2023-06-02T06:49:03.736Z,13.14
2023-06-02T06:51:30.387Z,13.16
2023-06-02T06:53:56.933Z,13.26
2023-06-02T06:56:23.517Z,13.41
2023-06-02T06:58:50.109Z,13.44
2023-06-02T07:01:17.090Z,13.69
2023-06-02T07:03:45.740Z,13.76
2023-06-02T07:06:12.763Z,13.23
2023-06-02T07:08:39.373Z,13.36
2023-06-02T07:11:06.125Z,13.72
2023-06-02T07:13:32.704Z,13.67
2023-06-02T07:15:59.379Z,13.86
2023-06-02T07:18:25.978Z,13.67
2023-06-02T07:20:52.624Z,13.74
2023-06-02T07:23:19.191Z,13.64
2023-06-02T07:25:46.305Z,13.69
2023-06-02T07:28:14.744Z,14.09
2023-06-02T07:31:01.310Z,14.08
2023-06-02T07:33:35.483Z,14.16
2023-06-02T07:36:01.990Z,14.32
2023-06-02T07:38:28.749Z,14.53
2023-06-02T07:40:55.407Z,14.60
2023-06-02T07:43:21.961Z,14.60
2023-06-02T07:45:48.668Z,14.47
2023-06-02T07:48:15.578Z,14.40
2023-06-02T07:50:42.266Z,14.43
2023-06-02T07:53:08.895Z,14.73
2023-06-02T07:55:35.529Z,14.92
2023-06-02T07:58:02.179Z,15.06
2023-06-02T08:00:28.795Z,14.89
2023-06-02T08:02:55.593Z,14.92
2023-06-02T08:05:22.540Z,15.09
2023-06-02T08:07:49.153Z,15.18
2023-06-02T08:10:15.894Z,14.92
2023-06-02T08:12:42.564Z,14.57
2023-06-02T08:15:09.559Z,14.84
2023-06-02T08:17:36.540Z,14.51
2023-06-02T08:20:05.030Z,14.91
2023-06-02T08:22:33.173Z,15.61
2023-06-02T08:24:59.902Z,15.66
2023-06-02T08:27:26.537Z,15.47
2023-06-02T08:29:53.523Z,15.81
2023-06-02T08:32:27.081Z,15.40
2023-06-02T08:34:56.067Z,15.50
2023-06-02T08:37:22.752Z,16.73
2023-06-02T08:39:51.077Z,17.28
2023-06-02T08:42:18.417Z,16.38
2023-06-02T08:44:47.540Z,16.18
2023-06-02T08:47:16.125Z,16.11
2023-06-02T08:49:45.075Z,16.17
2023-06-02T08:52:15.758Z,16.55
2023-06-02T08:54:42.737Z,16.12
2023-06-02T08:57:14.096Z,16.18
2023-06-02T08:59:41.432Z,16.24
2023-06-02T09:02:08.186Z,15.84
2023-06-02T09:04:34.948Z,16.22
2023-06-02T09:07:22.249Z,15.88
2023-06-02T09:09:52.224Z,16.04
2023-06-02T09:12:20.164Z,16.18
2023-06-02T09:14:48.506Z,16.01
2023-06-02T09:17:29.670Z,15.42
2023-06-02T09:19:58.733Z,15.09
2023-06-02T09:22:25.778Z,15.66
2023-06-02T09:24:54.459Z,16.07
2023-06-02T09:27:21.493Z,16.01
2023-06-02T09:29:50.709Z,16.36
2023-06-02T09:32:20.230Z,15.84
2023-06-02T09:34:47.357Z,15.64
2023-06-02T09:37:15.829Z,15.57
2023-06-02T09:39:44.863Z,16.11
2023-06-02T09:42:13.965Z,16.05
2023-06-02T09:44:41.404Z,15.74
2023-06-02T09:47:22.140Z,15.64
2023-06-02T09:49:48.890Z,16.17
2023-06-02T09:52:17.166Z,16.25
2023-06-02T09:54:44.950Z,16.22
2023-06-02T09:57:15.592Z,16.70
2023-06-02T09:59:43.486Z,16.30
2023-06-02T10:02:11.064Z,16.77
2023-06-02T10:04:37.893Z,16.56
2023-06-02T10:07:09.630Z,17.31
2023-06-02T10:09:57.746Z,17.34
2023-06-02T10:12:49.175Z,17.61
2023-06-02T10:15:21.922Z,17.31
2023-06-02T10:18:28.481Z,16.60
2023-06-02T10:21:26.945Z,17.04
2023-06-02T10:24:15.945Z,16.70
2023-06-02T10:26:42.566Z,17.13
2023-06-02T10:29:09.719Z,17.08
2023-06-02T10:31:36.347Z,17.02
2023-06-02T10:34:03.338Z,16.96
2023-06-02T10:37:02.008Z,17.07
2023-06-02T10:39:43.761Z,17.36
2023-06-02T10:42:15.489Z,17.34
2023-06-02T10:44:42.674Z,17.55
2023-06-02T10:47:18.386Z,17.08
2023-06-02T10:49:59.131Z,16.88
2023-06-02T10:52:36.093Z,16.83
2023-06-02T10:55:08.795Z,17.49
2023-06-02T10:58:04.455Z,17.73
2023-06-02T11:00:34.404Z,17.38
2023-06-02T11:03:18.979Z,17.04
2023-06-02T11:05:47.486Z,17.31
2023-06-02T11:08:26.955Z,17.69
2023-06-02T11:10:59.619Z,17.92
2023-06-02T11:13:30.141Z,17.89
2023-06-02T11:16:00.067Z,17.41
2023-06-02T11:18:30.178Z,17.94
2023-06-02T11:20:59.057Z,18.20
2023-06-02T11:23:26.809Z,18.31
2023-06-02T11:26:02.716Z,17.75
2023-06-02T11:28:30.120Z,17.99
2023-06-02T11:31:12.691Z,18.20
2023-06-02T11:33:41.000Z,18.91
2023-06-02T11:36:10.152Z,19.39
2023-06-02T11:38:39.517Z,19.64
2023-06-02T11:41:13.774Z,19.41
2023-06-02T11:43:41.910Z,19.22
2023-06-02T11:46:10.162Z,18.68
2023-06-02T11:48:39.871Z,19.75
2023-06-02T11:51:09.726Z,19.41
2023-06-02T11:53:39.329Z,19.70
2023-06-02T11:56:09.045Z,19.82
2023-06-02T11:58:46.089Z,19.50
2023-06-02T12:01:22.094Z,19.33
2023-06-02T12:03:56.040Z,19.49
2023-06-02T12:06:22.852Z,19.23
2023-06-02T12:08:49.548Z,19.40
2023-06-02T12:11:20.333Z,19.03
2023-06-02T12:14:03.007Z,19.30
2023-06-02T12:16:30.305Z,21.00
2023-06-02T12:19:12.676Z,20.93
2023-06-02T12:21:42.942Z,19.71
2023-06-02T12:24:11.417Z,20.04
2023-06-02T12:26:46.642Z,21.30
2023-06-02T12:29:14.658Z,21.56
2023-06-02T12:31:41.549Z,21.25
2023-06-02T12:34:08.911Z,20.40
2023-06-02T12:36:36.587Z,21.21
2023-06-02T12:39:05.943Z,20.15
2023-06-02T12:41:32.954Z,20.43
2023-06-02T12:43:59.673Z,20.39
2023-06-02T12:46:28.274Z,21.49
2023-06-02T12:48:55.482Z,20.80
2023-06-02T12:51:22.202Z,20.49
2023-06-02T12:53:49.338Z,20.94
2023-06-02T12:56:16.091Z,20.87
2023-06-02T12:58:42.909Z,20.73
2023-06-02T13:01:09.844Z,21.28
2023-06-02T13:03:36.601Z,22.31
2023-06-02T13:06:06.588Z,23.27
2023-06-02T13:08:34.134Z,23.05
2023-06-02T13:11:00.749Z,23.15
2023-06-02T13:13:27.697Z,23.15
2023-06-02T13:16:04.754Z,24.59
2023-06-02T13:18:31.722Z,21.83
2023-06-02T13:20:58.300Z,22.00
2023-06-02T13:23:25.087Z,22.03
2023-06-02T13:25:51.912Z,22.65
2023-06-02T13:28:18.689Z,22.30
2023-06-02T13:30:45.547Z,21.72
2023-06-02T13:33:12.137Z,22.88
2023-06-02T13:35:39.243Z,22.65
2023-06-02T13:38:06.321Z,22.13
2023-06-02T13:40:33.189Z,22.03
2023-06-02T13:42:59.759Z,21.90
2023-06-02T13:45:26.377Z,22.75
2023-06-02T13:47:54.244Z,22.38
2023-06-02T13:50:21.130Z,22.65
2023-06-02T13:52:47.784Z,22.33
2023-06-02T13:55:14.640Z,23.10
2023-06-02T13:57:41.236Z,22.89
2023-06-02T14:00:08.493Z,23.55
2023-06-02T14:02:35.253Z,23.70
2023-06-02T14:05:01.929Z,23.75
2023-06-02T14:07:28.570Z,23.98
2023-06-02T14:09:55.222Z,22.95
2023-06-02T14:12:21.925Z,22.62
2023-06-02T14:14:48.567Z,22.89
2023-06-02T14:17:15.168Z,22.48
2023-06-02T14:19:41.745Z,23.00
2023-06-02T14:22:08.655Z,23.47
2023-06-02T14:24:35.440Z,24.04
2023-06-02T14:27:02.148Z,23.60
2023-06-02T14:29:28.735Z,23.61
2023-06-02T14:31:55.951Z,23.70
2023-06-02T14:34:22.771Z,23.12
2023-06-02T14:36:49.438Z,22.79
2023-06-02T14:39:16.118Z,22.47
2023-06-02T14:41:43.943Z,22.96
2023-06-02T14:44:10.567Z,22.72
2023-06-02T14:46:37.325Z,22.57
2023-06-02T14:49:03.894Z,22.51
2023-06-02T14:51:30.840Z,22.55
2023-06-02T14:53:58.309Z,22.69
2023-06-02T14:56:25.726Z,22.69
2023-06-02T14:59:06.570Z,22.68
2023-06-02T15:01:37.429Z,22.81
2023-06-02T15:04:04.980Z,22.41
2023-06-02T15:06:32.502Z,21.69
2023-06-02T15:08:59.753Z,21.89
2023-06-02T15:11:28.094Z,22.11
2023-06-02T15:13:55.190Z,22.13
2023-06-02T15:16:21.972Z,22.41
2023-06-02T15:18:53.970Z,22.24
2023-06-02T15:21:22.249Z,22.22
2023-06-02T15:23:49.057Z,22.37
2023-06-02T15:26:16.189Z,22.68
2023-06-02T15:28:43.857Z,22.57
2023-06-02T15:31:10.819Z,22.49
2023-06-02T15:33:37.434Z,22.48
2023-06-02T15:36:04.478Z,22.38
2023-06-02T15:38:31.308Z,22.27
2023-06-02T15:40:58.058Z,22.09
2023-06-02T15:43:24.670Z,21.94
2023-06-02T15:45:51.310Z,21.82
2023-06-02T15:48:17.967Z,21.73
2023-06-02T15:50:44.568Z,21.82
2023-06-02T15:53:11.116Z,21.82
2023-06-02T15:55:37.663Z,21.18
2023-06-02T15:58:04.380Z,21.20
2023-06-02T16:00:30.942Z,21.31
2023-06-02T16:02:57.569Z,21.70
2023-06-02T16:05:24.863Z,21.35
2023-06-02T16:07:51.497Z,21.43
2023-06-02T16:10:18.118Z,21.73
2023-06-02T16:12:48.927Z,22.03
2023-06-02T16:15:16.865Z,21.76
2023-06-02T16:17:43.575Z,21.53
2023-06-02T16:20:10.939Z,21.59
2023-06-02T16:22:37.991Z,21.35
2023-06-02T16:25:05.436Z,21.32
2023-06-02T16:27:32.456Z,21.22
2023-06-02T16:29:59.109Z,20.88
2023-06-02T16:32:26.071Z,21.00
2023-06-02T16:34:52.935Z,20.40
2023-06-02T16:37:19.866Z,20.08
2023-06-02T16:39:47.319Z,20.35
2023-06-02T16:42:15.363Z,19.79
2023-06-02T16:44:42.151Z,19.79
2023-06-02T16:47:09.279Z,19.89
2023-06-02T16:49:35.946Z,19.70
2023-06-02T16:52:07.463Z,19.87
2023-06-02T16:54:35.847Z,20.25
2023-06-02T16:57:02.406Z,20.29
2023-06-02T16:59:29.264Z,20.54
2023-06-02T17:01:56.053Z,20.64
2023-06-02T17:04:22.738Z,20.62
2023-06-02T17:06:49.497Z,20.67
2023-06-02T17:09:17.410Z,20.53
2023-06-02T17:11:45.080Z,20.42
2023-06-02T17:14:11.714Z,20.40
2023-06-02T17:16:38.335Z,20.54
2023-06-02T17:19:05.302Z,20.56
2023-06-02T17:21:32.082Z,20.46
2023-06-02T17:23:58.991Z,20.16
2023-06-02T17:26:26.411Z,20.04
2023-06-02T17:28:53.035Z,20.02
2023-06-02T17:31:19.621Z,20.16
2023-06-02T17:33:46.262Z,20.46
2023-06-02T17:36:13.647Z,20.37
2023-06-02T17:38:40.278Z,20.11
2023-06-02T17:41:07.995Z,20.05
2023-06-02T17:43:34.760Z,19.92
2023-06-02T17:46:01.359Z,19.82
2023-06-02T17:48:27.943Z,19.94
2023-06-02T17:50:54.556Z,19.85
2023-06-02T17:53:21.111Z,19.92
2023-06-02T17:55:48.215Z,19.94
2023-06-02T17:58:15.877Z,19.82
2023-06-02T18:00:42.563Z,19.61
2023-06-02T18:03:09.392Z,19.34
2023-06-02T18:05:36.108Z,19.49
2023-06-02T18:08:03.793Z,19.51
2023-06-02T18:10:30.398Z,19.34
2023-06-02T18:12:59.377Z,19.26
2023-06-02T18:15:26.819Z,19.09
2023-06-02T18:17:54.166Z,19.31
2023-06-02T18:20:21.027Z,19.23
2023-06-02T18:22:47.775Z,19.05
2023-06-02T18:25:16.007Z,18.99
2023-06-02T18:27:43.108Z,19.05
2023-06-02T18:30:10.162Z,19.19
2023-06-02T18:32:37.117Z,19.16
2023-06-02T18:35:04.025Z,18.87
2023-06-02T18:37:30.707Z,18.78
2023-06-02T18:39:57.274Z,18.65
2023-06-02T18:42:23.928Z,18.84
2023-06-02T18:44:50.565Z,19.03
2023-06-02T18:47:17.283Z,18.99
2023-06-02T18:49:43.983Z,18.92
2023-06-02T18:52:10.680Z,18.68
2023-06-02T18:54:37.321Z,18.51
2023-06-02T18:57:04.622Z,18.45
2023-06-02T18:59:31.183Z,18.45
2023-06-02T19:01:57.855Z,18.31
2023-06-02T19:04:25.017Z,18.14
2023-06-02T19:06:51.553Z,18.13
2023-06-02T19:09:18.150Z,18.13
2023-06-02T19:11:46.406Z,18.03
2023-06-02T19:14:13.044Z,17.90
2023-06-02T19:16:39.652Z,17.87
2023-06-02T19:19:22.232Z,17.79
2023-06-02T19:24:22.972Z,17.73
2023-06-02T19:26:49.976Z,17.64
2023-06-02T19:29:17.743Z,17.55
2023-06-02T19:31:44.945Z,17.51
2023-06-02T19:34:11.661Z,17.32
2023-06-02T19:36:41.210Z,17.31
2023-06-02T19:39:09.472Z,17.13
2023-06-02T19:41:36.185Z,17.13
2023-06-02T19:44:03.024Z,17.21
2023-06-02T19:46:29.820Z,17.11
2023-06-02T19:48:57.402Z,17.10
2023-06-02T19:51:24.123Z,17.04
2023-06-02T19:53:50.915Z,17.04
2023-06-02T19:56:17.835Z,16.90
2023-06-02T19:58:44.529Z,16.84
2023-06-02T20:01:11.297Z,16.84
2023-06-02T20:03:38.082Z,16.81
2023-06-02T20:06:08.658Z,16.77
2023-06-02T20:08:35.828Z,16.62
2023-06-02T20:11:03.773Z,16.52
2023-06-02T20:13:30.823Z,16.59
2023-06-02T20:15:57.649Z,16.58
2023-06-02T20:18:24.296Z,16.59
2023-06-02T20:20:51.269Z,16.45
2023-06-02T20:23:17.916Z,16.44
2023-06-02T20:25:44.624Z,16.29
2023-06-02T20:28:11.246Z,16.28
2023-06-02T20:30:38.070Z,16.28
2023-06-02T20:33:04.774Z,16.22
2023-06-02T20:35:31.730Z,16.12
2023-06-02T20:37:58.495Z,16.14
2023-06-02T20:40:25.232Z,16.11
2023-06-02T20:42:51.817Z,16.02
2023-06-02T20:45:21.876Z,16.07
2023-06-02T20:47:49.199Z,16.00
2023-06-02T20:50:16.214Z,15.91
2023-06-02T20:52:42.909Z,15.96
2023-06-02T20:55:09.805Z,15.88
2023-06-02T20:57:36.478Z,15.88
2023-06-02T21:00:06.079Z,15.87
2023-06-02T21:02:34.079Z,15.77
2023-06-02T21:05:00.949Z,15.79
2023-06-02T21:07:29.392Z,15.74
2023-06-02T21:09:56.436Z,15.73
2023-06-02T21:12:23.028Z,15.77
2023-06-02T21:14:49.662Z,15.67
2023-06-02T21:17:16.331Z,15.66
2023-06-02T21:19:43.043Z,15.61
2023-06-02T21:22:09.650Z,15.56
2023-06-02T21:24:36.217Z,15.47
2023-06-02T21:27:02.802Z,15.52
2023-06-02T21:29:29.439Z,15.49
2023-06-02T21:31:58.379Z,15.43
2023-06-02T21:34:24.993Z,15.36
2023-06-02T21:36:51.578Z,15.46
2023-06-02T21:39:18.173Z,15.36
2023-06-02T21:41:44.783Z,15.32
2023-06-02T21:44:11.413Z,15.23
2023-06-02T21:46:38.090Z,15.22
2023-06-02T21:49:04.941Z,15.23
2023-06-02T21:51:32.903Z,15.18
2023-06-02T21:54:00.535Z,15.13
2023-06-02T21:56:27.851Z,15.19
2023-06-02T21:58:54.842Z,15.22
2023-06-02T22:01:21.937Z,15.23
2023-06-02T22:03:48.959Z,15.22
2023-06-02T22:06:15.734Z,15.16
2023-06-02T22:08:43.756Z,15.21
2023-06-02T22:11:10.581Z,15.23
2023-06-02T22:13:37.321Z,15.13
2023-06-02T22:16:04.538Z,15.13
2023-06-02T22:18:31.148Z,15.16
2023-06-02T22:20:57.741Z,15.15
2023-06-02T22:23:24.582Z,15.16
2023-06-02T22:25:51.290Z,15.09
2023-06-02T22:28:18.078Z,15.11
2023-06-02T22:30:44.758Z,15.05
2023-06-02T22:33:11.345Z,15.06
2023-06-02T22:35:38.008Z,14.95
2023-06-02T22:38:04.599Z,14.94
2023-06-02T22:40:31.169Z,14.87
2023-06-02T22:42:57.747Z,14.88
2023-06-02T22:45:24.370Z,14.89
2023-06-02T22:47:51.120Z,14.85
2023-06-02T22:50:17.804Z,14.85
2023-06-02T22:52:44.430Z,14.85
2023-06-02T22:55:11.051Z,14.81
2023-06-02T22:57:37.706Z,14.78
2023-06-02T23:00:04.728Z,14.74
2023-06-02T23:02:32.038Z,14.73
2023-06-02T23:04:58.651Z,14.64
2023-06-02T23:07:25.225Z,14.74
2023-06-02T23:09:51.773Z,14.70
2023-06-02T23:12:18.721Z,14.64
2023-06-02T23:14:48.326Z,14.57
2023-06-02T23:17:15.128Z,14.53
2023-06-02T23:19:41.887Z,14.54
2023-06-02T23:22:08.557Z,14.47
2023-06-02T23:24:35.150Z,14.43
2023-06-02T23:27:01.811Z,14.37
2023-06-02T23:29:28.404Z,14.38
2023-06-02T23:31:55.012Z,14.40
2023-06-02T23:34:21.785Z,14.36
2023-06-02T23:36:48.379Z,14.29
2023-06-02T23:39:15.023Z,14.29
2023-06-02T23:41:41.672Z,14.25
2023-06-02T23:44:08.399Z,14.20
2023-06-02T23:46:35.026Z,14.13
2023-06-02T23:49:02.292Z,14.12
2023-06-02T23:51:28.893Z,14.15
2023-06-02T23:53:55.624Z,14.12
2023-06-02T23:56:22.264Z,14.13
2023-06-02T23:58:48.942Z,14.16
